Aqualoyalty — A8ZC6 — position and weather

sailwx.info

Track history (hours):
 
Tides and Currents Weather Stations Pressure Air Temp Water Temp Dewpoint Dewpoint Depression Visibility Wind Speed Wind Dir Waves Ship Positions

Aqualoyalty

Last reported at 2017-Jun-10 02:33 UTC. Time now 2017-Jun-23 10:26 UTC.
Position N 31°04' W 118°27'.
Warning: this ship's position is 13 days out of date.

Length 249 m; draft 8.1 m.

Type: Ship. MMSI: 636015177.

Date/timePositionNaut miles runAvg speedWind from/ knotsBaromVisibWave heightAir tempDewpointWater temp
2017-Jun-10 02:33N 31°04' W 118°27'113.0
2017-Jun-10 02:29N 31°05' W 118°27'612.6
2017-Jun-10 01:59N 31°10' W 118°31'612.8
2017-Jun-10 01:31N 31°15' W 118°35'713.8
2017-Jun-10 00:58N 31°21' W 118°40'714.2
2017-Jun-10 00:30N 31°27' W 118°44'1014.0
2017-Jun-09 23:49N 31°35' W 118°49'3 9.5
2017-Jun-09 23:28N 31°37' W 118°52'611.8
2017-Jun-09 22:55N 31°32' W 118°57'7 7.4
2017-Jun-09 21:58N 31°27' W 119°02'5 2.6
2017-Jun-09 20:04N 31°29' W 119°07'1 1.7
2017-Jun-09 19:38N 31°29' W 119°08'1 1.8
2017-Jun-09 19:10N 31°30' W 119°08'1 1.8
2017-Jun-09 18:44N 31°30' W 119°09'1 1.7
2017-Jun-09 18:25N 31°31' W 119°09'1 1.7
2017-Jun-09 18:00N 31°31' W 119°10'2 1.8
2017-Jun-09 16:58N 31°32' W 119°12'2 1.4
2017-Jun-09 15:30N 31°34' W 119°13'1 1.4
2017-Jun-09 14:54N 31°35' W 119°14'1 1.4
2017-Jun-09 14:30N 31°35' W 119°14'1 1.3
2017-Jun-09 13:26N 31°36' W 119°15'1 1.9
2017-Jun-09 13:00N 31°37' W 119°16'1 1.3
2017-Jun-09 12:30N 31°37' W 119°17'1 1.3
2017-Jun-09 12:00N 31°38' W 119°17'1 1.6
2017-Jun-09 11:28N 31°39' W 119°18'1 1.7
2017-Jun-09 10:59N 31°39' W 119°18'1 1.7
2017-Jun-09 10:30N 31°40' W 119°19'1 1.6
2017-Jun-09 10:00N 31°40' W 119°19'1 1.4
2017-Jun-09 09:31N 31°41' W 119°20'0 0.9
2017-Jun-09 09:00N 31°41' W 119°21'0 0.8
2017-Jun-09 08:31N 31°41' W 119°21'1 1.2
2017-Jun-09 08:00N 31°42' W 119°21'1 1.3
2017-Jun-09 07:30N 31°42' W 119°22'1 1.3
2017-Jun-09 07:00N 31°43' W 119°22'1 1.4
2017-Jun-09 06:31N 31°43' W 119°23'1 2.0
2017-Jun-09 06:00N 31°44' W 119°24'1 2.0
2017-Jun-09 05:31N 31°45' W 119°24'1 2.2
2017-Jun-09 05:00N 31°46' W 119°25'1 2.0
2017-Jun-09 04:30N 31°46' W 119°26'1 2.4
2017-Jun-09 04:01N 31°47' W 119°27'1 2.6
2017-Jun-09 03:31N 31°49' W 119°27'1 2.4
2017-Jun-09 03:00N 31°50' W 119°28'1 2.7
2017-Jun-09 02:31N 31°51' W 119°29'2 3.6
2017-Jun-09 01:58N 31°52' W 119°30'3 5.9
2017-Jun-09 01:30N 31°55' W 119°32'3 5.7
2017-Jun-09 01:00N 31°57' W 119°33'1 2.9
2017-Jun-09 00:30N 31°58' W 119°35'1 2.2
2017-Jun-09 00:00N 31°59' W 119°36'1 2.3
2017-Jun-08 23:30N 31°59' W 119°37'3 6.5
2017-Jun-08 23:00N 32°01' W 119°40'5 9.8
2017-Jun-08 22:30N 32°03' W 119°46'1 1.7
2017-Jun-08 22:00N 32°03' W 119°47'1 1.6
2017-Jun-08 21:30N 32°04' W 119°47'1 1.5
2017-Jun-08 21:00N 32°04' W 119°48'1 1.2
2017-Jun-08 20:30N 32°04' W 119°49'1 1.3
2017-Jun-08 20:00N 32°05' W 119°49'1 1.1
2017-Jun-08 19:30N 32°04' W 119°49'5 9.3
2017-Jun-08 19:00N 32°01' W 119°45'510.9
2017-Jun-08 18:30N 31°57' W 119°40'1311.4
2017-Jun-08 17:21N 31°49' W 119°29'511.6
2017-Jun-08 16:55N 31°45' W 119°25'511.6
2017-Jun-08 16:29N 31°41' W 119°20'611.5
2017-Jun-08 16:00N 31°37' W 119°16'3 6.5
2017-Jun-08 15:30N 31°35' W 119°14'1 2.2
2017-Jun-08 15:00N 31°35' W 119°15'1 2.2
2017-Jun-08 14:30N 31°35' W 119°16'2 1.9
2017-Jun-08 13:30N 31°36' W 119°18'1 1.4
2017-Jun-08 13:00N 31°37' W 119°18'1 1.4
2017-Jun-08 12:30N 31°37' W 119°19'1 1.3
2017-Jun-08 12:00N 31°37' W 119°20'1 1.2
2017-Jun-08 11:30N 31°38' W 119°20'1 1.2
2017-Jun-08 11:00N 31°38' W 119°21'1 1.2
2017-Jun-08 10:30N 31°38' W 119°22'1 1.4
2017-Jun-08 10:00N 31°39' W 119°22'1 1.3
2017-Jun-08 09:30N 31°39' W 119°23'1 1.5
2017-Jun-08 09:00N 31°39' W 119°24'1 1.6
2017-Jun-08 08:30N 31°40' W 119°24'1 1.7
2017-Jun-08 08:00N 31°40' W 119°25'1 1.5
2017-Jun-08 07:30N 31°41' W 119°26'1 1.6
2017-Jun-08 07:00N 31°41' W 119°27'1 1.9
2017-Jun-08 06:30N 31°42' W 119°28'1 1.7
2017-Jun-08 06:00N 31°42' W 119°29'1 1.7
2017-Jun-08 05:30N 31°43' W 119°29'1 1.7
2017-Jun-08 05:00N 31°43' W 119°30'1 1.6
2017-Jun-08 04:30N 31°44' W 119°31'1 1.8
2017-Jun-08 04:00N 31°44' W 119°32'1 1.8
2017-Jun-08 03:30N 31°45' W 119°32'1 1.8
2017-Jun-08 03:00N 31°45' W 119°33'1 2.0
2017-Jun-08 02:30N 31°46' W 119°34'1 2.2
2017-Jun-08 02:00N 31°47' W 119°35'1 2.2
2017-Jun-08 01:30N 31°48' W 119°36'1 2.3
2017-Jun-08 01:00N 31°49' W 119°36'1 2.3
2017-Jun-08 00:30N 31°50' W 119°37'1 2.6
2017-Jun-08 00:00N 31°51' W 119°37'1 2.7
2017-Jun-07 23:30N 31°52' W 119°38'1 2.7
2017-Jun-07 23:00N 31°54' W 119°38'1 2.8
2017-Jun-07 22:30N 31°55' W 119°39'1 2.7
2017-Jun-07 22:00N 31°56' W 119°40'1 3.0
2017-Jun-07 21:30N 31°57' W 119°41'2 4.3
2017-Jun-07 21:01N 31°59' W 119°42'3 5.7
2017-Jun-07 20:30N 32°01' W 119°44'3 5.6
2017-Jun-07 20:00N 32°04' W 119°46'2 4.4
2017-Jun-07 19:30N 32°06' W 119°47'1 2.5
2017-Jun-07 19:00N 32°07' W 119°48'1 1.4
2017-Jun-07 18:31N 32°07' W 119°49'1 1.5
2017-Jun-07 18:01N 32°08' W 119°49'1 1.7
2017-Jun-07 17:30N 32°09' W 119°50'1 2.2
2017-Jun-07 17:00N 32°09' W 119°51'1 2.5
2017-Jun-07 16:28N 32°10' W 119°52'1 1.8
2017-Jun-07 15:57N 32°11' W 119°52'1 1.7
2017-Jun-07 15:26N 32°12' W 119°52'2 3.5
2017-Jun-07 14:58N 32°13' W 119°52'6 6.1
2017-Jun-07 14:00N 32°09' W 119°57'1 1.3
2017-Jun-07 13:29N 32°10' W 119°57'1 1.4
2017-Jun-07 13:00N 32°10' W 119°58'1 1.5
2017-Jun-07 12:27N 32°11' W 119°58'1 1.6
2017-Jun-07 12:00N 32°12' W 119°58'1 1.6
2017-Jun-07 11:29N 32°13' W 119°58'1 1.6
2017-Jun-07 11:00N 32°13' W 119°58'1 1.6
2017-Jun-07 10:30N 32°14' W 119°59'1 1.6
2017-Jun-07 09:59N 32°15' W 119°59'1 1.5
2017-Jun-07 09:30N 32°16' W 119°59'1 1.5
2017-Jun-07 09:00N 32°16' W 119°60'1 1.5
2017-Jun-07 08:30N 32°17' W 119°60'1 1.8
2017-Jun-07 08:00N 32°18' W 119°60'1 2.0
2017-Jun-07 07:29N 32°19' W 120°00'1 1.9
2017-Jun-07 06:57N 32°20' W 120°00'1 1.9
2017-Jun-07 06:23N 32°21' W 120°01'1 2.0
2017-Jun-07 06:00N 32°22' W 120°01'1 1.9
2017-Jun-07 05:30N 32°23' W 120°02'1 1.7
2017-Jun-07 04:41N 32°24' W 120°03'0 1.2
2017-Jun-07 04:30N 32°24' W 120°03'1 1.9
2017-Jun-07 04:00N 32°24' W 120°02'5 9.3
2017-Jun-07 03:31N 32°21' W 119°57'5 9.8
2017-Jun-07 03:00N 32°18' W 119°53'11 9.7
2017-Jun-07 01:51N 32°09' W 119°45'3 9.6
2017-Jun-07 01:29N 32°06' W 119°42'5 9.7
2017-Jun-07 01:00N 32°03' W 119°38'5 9.7
2017-Jun-07 00:30N 31°59' W 119°34'5 9.9
2017-Jun-07 00:00N 31°56' W 119°30'510.2
2017-Jun-06 23:30N 31°53' W 119°26'610.2
2017-Jun-06 22:57N 31°48' W 119°21'4 9.9
2017-Jun-06 22:31N 31°45' W 119°18'2 5.0
2017-Jun-06 22:01N 31°43' W 119°16'1 1.7
2017-Jun-06 21:30N 31°43' W 119°17'1 1.7
2017-Jun-06 21:00N 31°43' W 119°18'1 1.7
2017-Jun-06 20:30N 31°43' W 119°19'1 1.7
2017-Jun-06 20:01N 31°43' W 119°20'1 1.6
2017-Jun-06 19:30N 31°43' W 119°21'1 1.5
2017-Jun-06 19:00N 31°43' W 119°22'1 1.6
2017-Jun-06 18:30N 31°43' W 119°23'1 1.5
2017-Jun-06 18:00N 31°43' W 119°24'1 1.5
2017-Jun-06 17:30N 31°43' W 119°25'1 1.4
2017-Jun-06 17:00N 31°43' W 119°26'1 1.3
2017-Jun-06 16:30N 31°44' W 119°26'1 1.1
2017-Jun-06 16:00N 31°44' W 119°27'1 1.4
2017-Jun-06 15:30N 31°44' W 119°28'1 1.4
2017-Jun-06 15:00N 31°44' W 119°29'1 1.4
2017-Jun-06 14:30N 31°44' W 119°29'1 1.4
2017-Jun-06 13:27N 31°45' W 119°31'1 1.5
2017-Jun-06 13:00N 31°45' W 119°32'1 1.3
2017-Jun-06 12:30N 31°45' W 119°33'1 1.5
2017-Jun-06 12:00N 31°45' W 119°33'1 1.3
2017-Jun-06 11:30N 31°46' W 119°34'1 1.4
2017-Jun-06 11:00N 31°46' W 119°35'1 1.3
2017-Jun-06 10:30N 31°46' W 119°35'1 1.3
2017-Jun-06 10:00N 31°47' W 119°36'1 1.4
2017-Jun-06 09:31N 31°47' W 119°37'1 1.3
2017-Jun-06 09:00N 31°47' W 119°37'1 1.2
2017-Jun-06 08:30N 31°48' W 119°38'1 1.2
2017-Jun-06 08:00N 31°48' W 119°39'1 1.2
2017-Jun-06 07:28N 31°48' W 119°39'1 1.2
2017-Jun-06 07:00N 31°49' W 119°40'1 1.2
2017-Jun-06 06:24N 31°49' W 119°40'1 1.4
2017-Jun-06 06:00N 31°50' W 119°41'1 1.4
2017-Jun-06 05:24N 31°51' W 119°41'1 1.4
2017-Jun-06 05:00N 31°51' W 119°41'1 1.4
2017-Jun-06 04:30N 31°52' W 119°41'1 1.4
2017-Jun-06 03:58N 31°53' W 119°42'1 1.5
2017-Jun-06 03:30N 31°53' W 119°42'1 1.6
2017-Jun-06 03:00N 31°54' W 119°42'1 1.6
2017-Jun-06 02:30N 31°55' W 119°42'1 1.7
2017-Jun-06 02:00N 31°56' W 119°43'1 1.7
2017-Jun-06 01:30N 31°56' W 119°43'1 1.8
2017-Jun-06 01:00N 31°57' W 119°43'1 1.7
2017-Jun-06 00:30N 31°58' W 119°43'1 1.8
2017-Jun-06 00:00N 31°59' W 119°44'1 1.9
2017-Jun-05 23:30N 31°60' W 119°44'1 2.0
2017-Jun-05 22:56N 32°01' W 119°45'1 1.9
2017-Jun-05 22:30N 32°01' W 119°46'1 1.9
2017-Jun-05 22:00N 32°02' W 119°47'1 1.9
2017-Jun-05 21:30N 32°03' W 119°47'1 1.8
2017-Jun-05 21:00N 32°04' W 119°48'1 1.9
2017-Jun-05 20:30N 32°04' W 119°49'1 1.8
2017-Jun-05 19:56N 32°05' W 119°50'1 1.7
2017-Jun-05 19:23N 32°05' W 119°51'1 1.6
2017-Jun-05 19:00N 32°06' W 119°51'1 1.7
2017-Jun-05 18:30N 32°06' W 119°52'1 1.8
2017-Jun-05 18:00N 32°07' W 119°53'1 1.9
2017-Jun-05 17:30N 32°08' W 119°53'1 2.0
2017-Jun-05 16:59N 32°09' W 119°54'1 2.0
2017-Jun-05 16:30N 32°10' W 119°54'1 2.0
2017-Jun-05 16:00N 32°10' W 119°55'2 1.9
2017-Jun-05 15:00N 32°12' W 119°57'7 4.4
2017-Jun-05 13:17N 32°07' W 119°50'1 2.1
2017-Jun-05 13:00N 32°07' W 119°49'1 1.8
2017-Jun-05 12:30N 32°07' W 119°50'1 2.0
2017-Jun-05 12:00N 32°08' W 119°51'1 2.0
2017-Jun-05 11:30N 32°09' W 119°52'1 2.1
2017-Jun-05 11:00N 32°09' W 119°52'1 2.0
2017-Jun-05 10:30N 32°10' W 119°53'1 2.0
2017-Jun-05 10:00N 32°11' W 119°54'1 2.0
2017-Jun-05 09:31N 32°12' W 119°55'1 1.9
2017-Jun-05 09:00N 32°12' W 119°56'1 2.0
2017-Jun-05 08:31N 32°13' W 119°57'1 1.9
2017-Jun-05 08:01N 32°13' W 119°58'1 1.9
2017-Jun-05 07:30N 32°14' W 119°59'1 1.7
2017-Jun-05 07:00N 32°14' W 119°59'1 1.6
2017-Jun-05 06:30N 32°15' W 120°00'0 0.9
2017-Jun-05 06:00N 32°15' W 120°01'4 7.4
2017-Jun-05 05:30N 32°14' W 119°57'5 9.6
2017-Jun-05 05:00N 32°12' W 119°51'5 9.6
2017-Jun-05 04:30N 32°11' W 119°46'5 9.7
2017-Jun-05 04:01N 32°09' W 119°41'6 9.6
2017-Jun-05 03:25N 32°06' W 119°35'6 9.9
2017-Jun-05 02:48N 32°03' W 119°29'410.0
2017-Jun-05 02:24N 32°00' W 119°25'5 9.7
2017-Jun-05 01:51N 31°57' W 119°20'5 9.7
2017-Jun-05 01:23N 31°55' W 119°15'4 9.8
2017-Jun-05 01:00N 31°53' W 119°12'5 9.7
2017-Jun-05 00:30N 31°50' W 119°07'5 9.8
2017-Jun-05 00:00N 31°47' W 119°02'510.0
2017-Jun-04 23:31N 31°44' W 118°57'5 9.9
2017-Jun-04 23:00N 31°42' W 118°53'510.0
2017-Jun-04 22:28N 31°39' W 118°47'510.2
2017-Jun-04 22:00N 31°36' W 118°43'510.3
2017-Jun-04 21:30N 31°33' W 118°38'510.4
2017-Jun-04 21:00N 31°30' W 118°33'510.6
2017-Jun-04 20:30N 31°27' W 118°28'510.7
2017-Jun-04 20:00N 31°24' W 118°22'510.9
2017-Jun-04 19:30N 31°21' W 118°17'510.9
2017-Jun-04 19:00N 31°18' W 118°12'610.8
2017-Jun-04 18:30N 31°15' W 118°07'510.8
2017-Jun-04 18:00N 31°12' W 118°02'1010.8
2017-Jun-04 17:07N 31°06' W 117°52'210.9
2017-Jun-04 16:57N 31°05' W 117°51'1110.8
2017-Jun-04 15:57N 30°59' W 117°40'1 1.4
2017-Jun-04 15:13N 30°58' W 117°40'1 0.9
2017-Jun-04 14:29N 30°58' W 117°41'1 0.9
2017-Jun-04 13:13N 30°58' W 117°42'0 1.0
2017-Jun-04 13:00N 30°58' W 117°42'1 1.0
2017-Jun-04 12:26N 30°59' W 117°43'0 1.0
2017-Jun-04 12:00N 30°59' W 117°43'1 1.1
2017-Jun-04 11:30N 30°59' W 117°44'1 1.1
2017-Jun-04 10:58N 30°59' W 117°45'0 1.0
2017-Jun-04 10:30N 30°59' W 117°45'1 1.1
2017-Jun-04 09:58N 30°59' W 117°46'1 1.1
2017-Jun-04 09:30N 30°59' W 117°47'1 1.0
2017-Jun-04 08:54N 30°59' W 117°47'0 0.9
2017-Jun-04 08:30N 30°59' W 117°48'0 1.0
2017-Jun-04 08:00N 30°59' W 117°48'0 1.0
2017-Jun-04 07:30N 30°59' W 117°49'0 1.0
2017-Jun-04 07:00N 30°59' W 117°49'0 1.0
2017-Jun-04 06:30N 30°60' W 117°50'1 1.0
2017-Jun-04 05:12N 31°00' W 117°51'0 1.0
2017-Jun-04 05:00N 31°00' W 117°51'1 1.1
2017-Jun-04 04:31N 31°00' W 117°52'1 1.1
2017-Jun-04 03:55N 31°00' W 117°53'1 1.2
2017-Jun-04 03:03N 31°01' W 117°54'0 1.0
2017-Jun-04 02:53N 31°01' W 117°54'1 1.2
2017-Jun-04 02:21N 31°01' W 117°55'0 1.1
2017-Jun-04 02:00N 31°01' W 117°55'1 1.1
2017-Jun-04 01:21N 31°01' W 117°56'0 1.1
2017-Jun-04 00:58N 31°01' W 117°57'1 1.2
2017-Jun-04 00:29N 31°02' W 117°57'1 1.2
2017-Jun-03 23:59N 31°02' W 117°58'1 1.3
2017-Jun-03 23:09N 31°02' W 117°59'1 1.3
2017-Jun-03 22:17N 31°02' W 118°00'1 1.2
2017-Jun-03 21:51N 31°02' W 118°01'0 1.4
2017-Jun-03 21:30N 31°02' W 118°02'1 1.2
2017-Jun-03 20:58N 31°02' W 118°02'1 1.3
2017-Jun-03 20:29N 31°02' W 118°03'1 1.2
2017-Jun-03 20:00N 31°02' W 118°04'1 1.2
2017-Jun-03 19:30N 31°02' W 118°04'1 1.1
2017-Jun-03 19:00N 31°02' W 118°05'1 1.1
2017-Jun-03 18:30N 31°02' W 118°06'1 1.1
2017-Jun-03 18:00N 31°02' W 118°06'1 1.1
2017-Jun-03 17:28N 31°02' W 118°07'1 1.2
2017-Jun-03 17:00N 31°02' W 118°08'1 1.1
2017-Jun-03 16:30N 31°02' W 118°08'1 1.1
2017-Jun-03 15:59N 31°02' W 118°09'1 1.0
2017-Jun-03 15:21N 31°02' W 118°10'0 0.8
2017-Jun-03 14:55N 31°02' W 118°10'1 0.8
2017-Jun-03 13:58N 31°02' W 118°11'0 0.9
2017-Jun-03 13:29N 31°03' W 118°12'0 1.0
2017-Jun-03 13:00N 31°03' W 118°12'0 0.9
2017-Jun-03 12:30N 31°03' W 118°13'0 1.0
2017-Jun-03 12:00N 31°03' W 118°13'0 1.0
2017-Jun-03 11:30N 31°03' W 118°14'1 1.1
2017-Jun-03 10:57N 31°03' W 118°14'1 1.2
2017-Jun-03 10:30N 31°04' W 118°15'1 1.1
2017-Jun-03 10:00N 31°04' W 118°16'1 1.2
2017-Jun-03 09:30N 31°04' W 118°16'1 1.3
2017-Jun-03 09:00N 31°04' W 118°17'1 1.2
2017-Jun-03 08:26N 31°04' W 118°18'1 1.3
2017-Jun-03 08:00N 31°05' W 118°18'1 1.3
2017-Jun-03 07:30N 31°05' W 118°19'1 1.3
2017-Jun-03 06:57N 31°05' W 118°20'1 1.3
2017-Jun-03 06:24N 31°05' W 118°21'1 1.3
2017-Jun-03 06:00N 31°05' W 118°21'1 1.3
2017-Jun-03 05:30N 31°05' W 118°22'1 1.1
2017-Jun-03 04:58N 31°05' W 118°23'1 1.2
2017-Jun-03 04:30N 31°05' W 118°24'1 1.2
2017-Jun-03 04:01N 31°05' W 118°24'1 1.1
2017-Jun-03 03:30N 31°05' W 118°25'1 1.2
2017-Jun-03 03:00N 31°05' W 118°26'1 1.1
2017-Jun-03 02:30N 31°05' W 118°26'1 1.2
2017-Jun-03 02:00N 31°05' W 118°27'1 1.2
2017-Jun-03 01:30N 31°05' W 118°28'1 1.1
2017-Jun-03 01:00N 31°05' W 118°28'1 1.3
2017-Jun-03 00:31N 31°05' W 118°29'1 1.2
2017-Jun-03 00:00N 31°05' W 118°30'1 1.2
2017-Jun-02 23:30N 31°05' W 118°30'1 1.3
2017-Jun-02 23:00N 31°05' W 118°31'1 1.1
2017-Jun-02 22:30N 31°04' W 118°32'1 1.1
2017-Jun-02 22:00N 31°04' W 118°32'1 1.0
2017-Jun-02 21:29N 31°04' W 118°33'0 1.0
2017-Jun-02 21:00N 31°04' W 118°34'0 0.9
2017-Jun-02 20:30N 31°04' W 118°34'1 1.2
2017-Jun-02 20:00N 31°04' W 118°35'1 1.6
2017-Jun-02 19:30N 31°04' W 118°35'4 8.5
2017-Jun-02 19:00N 31°01' W 118°32'510.1
2017-Jun-02 18:30N 30°57' W 118°29'13 9.6
2017-Jun-02 17:12N 30°46' W 118°22'1 5.8
2017-Jun-02 17:00N 30°45' W 118°21'20 1.1
2017-Jun-01 22:17N 31°05' W 118°23'2 1.1
2017-Jun-01 20:11N 31°07' W 118°25'15 7.8
2017-Jun-01 18:17N 31°22' W 118°23'4 9.5
2017-Jun-01 17:50N 31°23' W 118°28'3 7.8
2017-Jun-01 17:30N 31°22' W 118°26'2 3.1
2017-Jun-01 16:58N 31°20' W 118°24'1 1.4
2017-Jun-01 16:30N 31°20' W 118°25'1 1.5
2017-Jun-01 16:00N 31°20' W 118°26'1 1.5
2017-Jun-01 15:30N 31°21' W 118°27'1 1.4
2017-Jun-01 14:58N 31°21' W 118°28'1 1.6
2017-Jun-01 14:08N 31°21' W 118°29'1 1.6
2017-Jun-01 13:25N 31°22' W 118°30'1 1.6
2017-Jun-01 12:59N 31°22' W 118°31'1 1.7
2017-Jun-01 12:28N 31°22' W 118°32'1 1.7
2017-Jun-01 12:00N 31°22' W 118°33'1 1.9
2017-Jun-01 11:26N 31°23' W 118°34'1 1.7
2017-Jun-01 10:33N 31°23' W 118°36'0 2.1
2017-Jun-01 10:30N 31°23' W 118°36'1 1.7
2017-Jun-01 10:00N 31°23' W 118°37'1 2.8
2017-Jun-01 09:28N 31°23' W 118°39'1 3.0
2017-Jun-01 09:00N 31°23' W 118°40'3 3.0
2017-Jun-01 07:59N 31°24' W 118°44'1 3.0
2017-Jun-01 07:30N 31°24' W 118°46'3 2.8
2017-Jun-01 06:34N 31°26' W 118°48'0 3.2
2017-Jun-01 06:30N 31°26' W 118°48'2 2.8
2017-Jun-01 05:47N 31°27' W 118°50'5 2.5
2017-Jun-01 03:44N 31°30' W 118°55'3 2.7
2017-Jun-01 02:32N 31°32' W 118°57'1 2.6
2017-Jun-01 02:12N 31°33' W 118°58'1 2.6
2017-Jun-01 02:00N 31°33' W 118°59'1 2.7
2017-Jun-01 01:27N 31°34' W 118°60'2 2.9
2017-Jun-01 00:53N 31°35' W 119°01'1 3.1
2017-Jun-01 00:27N 31°36' W 119°02'2 2.9
2017-May-31 23:56N 31°37' W 119°04'1 2.9
2017-May-31 23:30N 31°38' W 119°05'1 2.8
2017-May-31 23:00N 31°39' W 119°06'2 2.8
2017-May-31 22:27N 31°40' W 119°08'1 2.8
2017-May-31 22:00N 31°41' W 119°09'1 2.6
2017-May-31 21:29N 31°42' W 119°10'1 2.6
2017-May-31 21:00N 31°42' W 119°11'1 2.6
2017-May-31 20:30N 31°43' W 119°12'1 2.5
2017-May-31 19:56N 31°44' W 119°14'1 2.6
2017-May-31 19:26N 31°45' W 119°15'1 2.9
2017-May-31 19:00N 31°45' W 119°16'2 3.1
2017-May-31 18:30N 31°46' W 119°18'2 3.3
2017-May-31 17:59N 31°47' W 119°20'2 3.2
2017-May-31 17:23N 31°48' W 119°21'1 3.2
2017-May-31 16:56N 31°49' W 119°23'2 3.0
2017-May-31 16:23N 31°50' W 119°24'2 3.0
2017-May-31 15:43N 31°51' W 119°26'1 2.9
2017-May-31 15:30N 31°51' W 119°27'1 2.9
2017-May-31 15:00N 31°52' W 119°28'5 4.7
2017-May-31 13:59N 31°55' W 119°33'3 6.5
2017-May-31 13:30N 31°57' W 119°35'1 2.1
2017-May-31 12:59N 31°58' W 119°37'1 2.9
2017-May-31 12:30N 31°58' W 119°38'2 2.0
2017-May-31 11:44N 31°58' W 119°40'2 4.5
2017-May-31 11:17N 31°57' W 119°39'0 1.1
2017-May-31 11:00N 31°57' W 119°39'1 1.3
2017-May-31 10:30N 31°57' W 119°40'1 1.3
2017-May-31 09:50N 31°58' W 119°40'0 1.4
2017-May-31 09:30N 31°58' W 119°40'1 1.2
2017-May-31 09:00N 31°59' W 119°41'1 1.3
2017-May-31 08:30N 31°59' W 119°41'1 1.6
2017-May-31 07:52N 32°00' W 119°42'1 1.8
2017-May-31 07:28N 32°01' W 119°42'1 1.8
2017-May-31 06:55N 32°02' W 119°42'1 1.8
2017-May-31 06:23N 32°03' W 119°43'1 2.0
2017-May-31 06:00N 32°03' W 119°43'1 2.0
2017-May-31 05:30N 32°04' W 119°43'1 2.2
2017-May-31 05:00N 32°05' W 119°44'1 2.3
2017-May-31 04:28N 32°07' W 119°44'1 2.2
2017-May-31 03:59N 32°08' W 119°44'1 2.0
2017-May-31 03:30N 32°08' W 119°45'1 2.0
2017-May-31 03:00N 32°09' W 119°45'  
Track history (hours):
 
Tides and Currents Weather Stations Pressure Air Temp Water Temp Dewpoint Dewpoint Depression Visibility Wind Speed Wind Dir Waves Ship Positions

Aqualoyalty

Last reported at 2017-Jun-10 02:33 UTC. Time now 2017-Jun-23 10:26 UTC.
Position N 31°04' W 118°27'.
Warning: this ship's position is 13 days out of date.

Length 249 m; draft 8.1 m.

Type: Ship. MMSI: 636015177.

Date/timePositionNaut miles runAvg speedWind from/ knotsBaromVisibWave heightAir tempDewpointWater temp
2017-Jun-10 02:33N 31°04' W 118°27'113.0
2017-Jun-10 02:29N 31°05' W 118°27'612.6
2017-Jun-10 01:59N 31°10' W 118°31'612.8
2017-Jun-10 01:31N 31°15' W 118°35'713.8
2017-Jun-10 00:58N 31°21' W 118°40'714.2
2017-Jun-10 00:30N 31°27' W 118°44'1014.0
2017-Jun-09 23:49N 31°35' W 118°49'3 9.5
2017-Jun-09 23:28N 31°37' W 118°52'611.8
2017-Jun-09 22:55N 31°32' W 118°57'7 7.4
2017-Jun-09 21:58N 31°27' W 119°02'5 2.6
2017-Jun-09 20:04N 31°29' W 119°07'1 1.7
2017-Jun-09 19:38N 31°29' W 119°08'1 1.8
2017-Jun-09 19:10N 31°30' W 119°08'1 1.8
2017-Jun-09 18:44N 31°30' W 119°09'1 1.7
2017-Jun-09 18:25N 31°31' W 119°09'1 1.7
2017-Jun-09 18:00N 31°31' W 119°10'2 1.8
2017-Jun-09 16:58N 31°32' W 119°12'2 1.4
2017-Jun-09 15:30N 31°34' W 119°13'1 1.4
2017-Jun-09 14:54N 31°35' W 119°14'1 1.4
2017-Jun-09 14:30N 31°35' W 119°14'1 1.3
2017-Jun-09 13:26N 31°36' W 119°15'1 1.9
2017-Jun-09 13:00N 31°37' W 119°16'1 1.3
2017-Jun-09 12:30N 31°37' W 119°17'1 1.3
2017-Jun-09 12:00N 31°38' W 119°17'1 1.6
2017-Jun-09 11:28N 31°39' W 119°18'1 1.7
2017-Jun-09 10:59N 31°39' W 119°18'1 1.7
2017-Jun-09 10:30N 31°40' W 119°19'1 1.6
2017-Jun-09 10:00N 31°40' W 119°19'1 1.4
2017-Jun-09 09:31N 31°41' W 119°20'0 0.9
2017-Jun-09 09:00N 31°41' W 119°21'0 0.8
2017-Jun-09 08:31N 31°41' W 119°21'1 1.2
2017-Jun-09 08:00N 31°42' W 119°21'1 1.3
2017-Jun-09 07:30N 31°42' W 119°22'1 1.3
2017-Jun-09 07:00N 31°43' W 119°22'1 1.4
2017-Jun-09 06:31N 31°43' W 119°23'1 2.0
2017-Jun-09 06:00N 31°44' W 119°24'1 2.0
2017-Jun-09 05:31N 31°45' W 119°24'1 2.2
2017-Jun-09 05:00N 31°46' W 119°25'1 2.0
2017-Jun-09 04:30N 31°46' W 119°26'1 2.4
2017-Jun-09 04:01N 31°47' W 119°27'1 2.6
2017-Jun-09 03:31N 31°49' W 119°27'1 2.4
2017-Jun-09 03:00N 31°50' W 119°28'1 2.7
2017-Jun-09 02:31N 31°51' W 119°29'2 3.6
2017-Jun-09 01:58N 31°52' W 119°30'3 5.9
2017-Jun-09 01:30N 31°55' W 119°32'3 5.7
2017-Jun-09 01:00N 31°57' W 119°33'1 2.9
2017-Jun-09 00:30N 31°58' W 119°35'1 2.2
2017-Jun-09 00:00N 31°59' W 119°36'1 2.3
2017-Jun-08 23:30N 31°59' W 119°37'3 6.5
2017-Jun-08 23:00N 32°01' W 119°40'5 9.8
2017-Jun-08 22:30N 32°03' W 119°46'1 1.7
2017-Jun-08 22:00N 32°03' W 119°47'1 1.6
2017-Jun-08 21:30N 32°04' W 119°47'1 1.5
2017-Jun-08 21:00N 32°04' W 119°48'1 1.2
2017-Jun-08 20:30N 32°04' W 119°49'1 1.3
2017-Jun-08 20:00N 32°05' W 119°49'1 1.1
2017-Jun-08 19:30N 32°04' W 119°49'5 9.3
2017-Jun-08 19:00N 32°01' W 119°45'510.9
2017-Jun-08 18:30N 31°57' W 119°40'1311.4
2017-Jun-08 17:21N 31°49' W 119°29'511.6
2017-Jun-08 16:55N 31°45' W 119°25'511.6
2017-Jun-08 16:29N 31°41' W 119°20'611.5
2017-Jun-08 16:00N 31°37' W 119°16'3 6.5
2017-Jun-08 15:30N 31°35' W 119°14'1 2.2
2017-Jun-08 15:00N 31°35' W 119°15'1 2.2
2017-Jun-08 14:30N 31°35' W 119°16'2 1.9
2017-Jun-08 13:30N 31°36' W 119°18'1 1.4
2017-Jun-08 13:00N 31°37' W 119°18'1 1.4
2017-Jun-08 12:30N 31°37' W 119°19'1 1.3
2017-Jun-08 12:00N 31°37' W 119°20'1 1.2
2017-Jun-08 11:30N 31°38' W 119°20'1 1.2
2017-Jun-08 11:00N 31°38' W 119°21'1 1.2
2017-Jun-08 10:30N 31°38' W 119°22'1 1.4
2017-Jun-08 10:00N 31°39' W 119°22'1 1.3
2017-Jun-08 09:30N 31°39' W 119°23'1 1.5
2017-Jun-08 09:00N 31°39' W 119°24'1 1.6
2017-Jun-08 08:30N 31°40' W 119°24'1 1.7
2017-Jun-08 08:00N 31°40' W 119°25'1 1.5
2017-Jun-08 07:30N 31°41' W 119°26'1 1.6
2017-Jun-08 07:00N 31°41' W 119°27'1 1.9
2017-Jun-08 06:30N 31°42' W 119°28'1 1.7
2017-Jun-08 06:00N 31°42' W 119°29'1 1.7
2017-Jun-08 05:30N 31°43' W 119°29'1 1.7
2017-Jun-08 05:00N 31°43' W 119°30'1 1.6
2017-Jun-08 04:30N 31°44' W 119°31'1 1.8
2017-Jun-08 04:00N 31°44' W 119°32'1 1.8
2017-Jun-08 03:30N 31°45' W 119°32'1 1.8
2017-Jun-08 03:00N 31°45' W 119°33'1 2.0
2017-Jun-08 02:30N 31°46' W 119°34'1 2.2
2017-Jun-08 02:00N 31°47' W 119°35'1 2.2
2017-Jun-08 01:30N 31°48' W 119°36'1 2.3
2017-Jun-08 01:00N 31°49' W 119°36'1 2.3
2017-Jun-08 00:30N 31°50' W 119°37'1 2.6
2017-Jun-08 00:00N 31°51' W 119°37'1 2.7
2017-Jun-07 23:30N 31°52' W 119°38'1 2.7
2017-Jun-07 23:00N 31°54' W 119°38'1 2.8
2017-Jun-07 22:30N 31°55' W 119°39'1 2.7
2017-Jun-07 22:00N 31°56' W 119°40'1 3.0
2017-Jun-07 21:30N 31°57' W 119°41'2 4.3
2017-Jun-07 21:01N 31°59' W 119°42'3 5.7
2017-Jun-07 20:30N 32°01' W 119°44'3 5.6
2017-Jun-07 20:00N 32°04' W 119°46'2 4.4
2017-Jun-07 19:30N 32°06' W 119°47'1 2.5
2017-Jun-07 19:00N 32°07' W 119°48'1 1.4
2017-Jun-07 18:31N 32°07' W 119°49'1 1.5
2017-Jun-07 18:01N 32°08' W 119°49'1 1.7
2017-Jun-07 17:30N 32°09' W 119°50'1 2.2
2017-Jun-07 17:00N 32°09' W 119°51'1 2.5
2017-Jun-07 16:28N 32°10' W 119°52'1 1.8
2017-Jun-07 15:57N 32°11' W 119°52'1 1.7
2017-Jun-07 15:26N 32°12' W 119°52'2 3.5
2017-Jun-07 14:58N 32°13' W 119°52'6 6.1
2017-Jun-07 14:00N 32°09' W 119°57'1 1.3
2017-Jun-07 13:29N 32°10' W 119°57'1 1.4
2017-Jun-07 13:00N 32°10' W 119°58'1 1.5
2017-Jun-07 12:27N 32°11' W 119°58'1 1.6
2017-Jun-07 12:00N 32°12' W 119°58'1 1.6
2017-Jun-07 11:29N 32°13' W 119°58'1 1.6
2017-Jun-07 11:00N 32°13' W 119°58'1 1.6
2017-Jun-07 10:30N 32°14' W 119°59'1 1.6
2017-Jun-07 09:59N 32°15' W 119°59'1 1.5
2017-Jun-07 09:30N 32°16' W 119°59'1 1.5
2017-Jun-07 09:00N 32°16' W 119°60'1 1.5
2017-Jun-07 08:30N 32°17' W 119°60'1 1.8
2017-Jun-07 08:00N 32°18' W 119°60'1 2.0
2017-Jun-07 07:29N 32°19' W 120°00'1 1.9
2017-Jun-07 06:57N 32°20' W 120°00'1 1.9
2017-Jun-07 06:23N 32°21' W 120°01'1 2.0
2017-Jun-07 06:00N 32°22' W 120°01'1 1.9
2017-Jun-07 05:30N 32°23' W 120°02'1 1.7
2017-Jun-07 04:41N 32°24' W 120°03'0 1.2
2017-Jun-07 04:30N 32°24' W 120°03'1 1.9
2017-Jun-07 04:00N 32°24' W 120°02'5 9.3
2017-Jun-07 03:31N 32°21' W 119°57'5 9.8
2017-Jun-07 03:00N 32°18' W 119°53'11 9.7
2017-Jun-07 01:51N 32°09' W 119°45'3 9.6
2017-Jun-07 01:29N 32°06' W 119°42'5 9.7
2017-Jun-07 01:00N 32°03' W 119°38'5 9.7
2017-Jun-07 00:30N 31°59' W 119°34'5 9.9
2017-Jun-07 00:00N 31°56' W 119°30'510.2
2017-Jun-06 23:30N 31°53' W 119°26'610.2
2017-Jun-06 22:57N 31°48' W 119°21'4 9.9
2017-Jun-06 22:31N 31°45' W 119°18'2 5.0
2017-Jun-06 22:01N 31°43' W 119°16'1 1.7
2017-Jun-06 21:30N 31°43' W 119°17'1 1.7
2017-Jun-06 21:00N 31°43' W 119°18'1 1.7
2017-Jun-06 20:30N 31°43' W 119°19'1 1.7
2017-Jun-06 20:01N 31°43' W 119°20'1 1.6
2017-Jun-06 19:30N 31°43' W 119°21'1 1.5
2017-Jun-06 19:00N 31°43' W 119°22'1 1.6
2017-Jun-06 18:30N 31°43' W 119°23'1 1.5
2017-Jun-06 18:00N 31°43' W 119°24'1 1.5
2017-Jun-06 17:30N 31°43' W 119°25'1 1.4
2017-Jun-06 17:00N 31°43' W 119°26'1 1.3
2017-Jun-06 16:30N 31°44' W 119°26'1 1.1
2017-Jun-06 16:00N 31°44' W 119°27'1 1.4
2017-Jun-06 15:30N 31°44' W 119°28'1 1.4
2017-Jun-06 15:00N 31°44' W 119°29'1 1.4
2017-Jun-06 14:30N 31°44' W 119°29'1 1.4
2017-Jun-06 13:27N 31°45' W 119°31'1 1.5
2017-Jun-06 13:00N 31°45' W 119°32'1 1.3
2017-Jun-06 12:30N 31°45' W 119°33'1 1.5
2017-Jun-06 12:00N 31°45' W 119°33'1 1.3
2017-Jun-06 11:30N 31°46' W 119°34'1 1.4
2017-Jun-06 11:00N 31°46' W 119°35'1 1.3
2017-Jun-06 10:30N 31°46' W 119°35'1 1.3
2017-Jun-06 10:00N 31°47' W 119°36'1 1.4
2017-Jun-06 09:31N 31°47' W 119°37'1 1.3
2017-Jun-06 09:00N 31°47' W 119°37'1 1.2
2017-Jun-06 08:30N 31°48' W 119°38'1 1.2
2017-Jun-06 08:00N 31°48' W 119°39'1 1.2
2017-Jun-06 07:28N 31°48' W 119°39'1 1.2
2017-Jun-06 07:00N 31°49' W 119°40'1 1.2
2017-Jun-06 06:24N 31°49' W 119°40'1 1.4
2017-Jun-06 06:00N 31°50' W 119°41'1 1.4
2017-Jun-06 05:24N 31°51' W 119°41'1 1.4
2017-Jun-06 05:00N 31°51' W 119°41'1 1.4
2017-Jun-06 04:30N 31°52' W 119°41'1 1.4
2017-Jun-06 03:58N 31°53' W 119°42'1 1.5
2017-Jun-06 03:30N 31°53' W 119°42'1 1.6
2017-Jun-06 03:00N 31°54' W 119°42'1 1.6
2017-Jun-06 02:30N 31°55' W 119°42'1 1.7
2017-Jun-06 02:00N 31°56' W 119°43'1 1.7
2017-Jun-06 01:30N 31°56' W 119°43'1 1.8
2017-Jun-06 01:00N 31°57' W 119°43'1 1.7
2017-Jun-06 00:30N 31°58' W 119°43'1 1.8
2017-Jun-06 00:00N 31°59' W 119°44'1 1.9
2017-Jun-05 23:30N 31°60' W 119°44'1 2.0
2017-Jun-05 22:56N 32°01' W 119°45'1 1.9
2017-Jun-05 22:30N 32°01' W 119°46'1 1.9
2017-Jun-05 22:00N 32°02' W 119°47'1 1.9
2017-Jun-05 21:30N 32°03' W 119°47'1 1.8
2017-Jun-05 21:00N 32°04' W 119°48'1 1.9
2017-Jun-05 20:30N 32°04' W 119°49'1 1.8
2017-Jun-05 19:56N 32°05' W 119°50'1 1.7
2017-Jun-05 19:23N 32°05' W 119°51'1 1.6
2017-Jun-05 19:00N 32°06' W 119°51'1 1.7
2017-Jun-05 18:30N 32°06' W 119°52'1 1.8
2017-Jun-05 18:00N 32°07' W 119°53'1 1.9
2017-Jun-05 17:30N 32°08' W 119°53'1 2.0
2017-Jun-05 16:59N 32°09' W 119°54'1 2.0
2017-Jun-05 16:30N 32°10' W 119°54'1 2.0
2017-Jun-05 16:00N 32°10' W 119°55'2 1.9
2017-Jun-05 15:00N 32°12' W 119°57'7 4.4
2017-Jun-05 13:17N 32°07' W 119°50'1 2.1
2017-Jun-05 13:00N 32°07' W 119°49'1 1.8
2017-Jun-05 12:30N 32°07' W 119°50'1 2.0
2017-Jun-05 12:00N 32°08' W 119°51'1 2.0
2017-Jun-05 11:30N 32°09' W 119°52'1 2.1
2017-Jun-05 11:00N 32°09' W 119°52'1 2.0
2017-Jun-05 10:30N 32°10' W 119°53'1 2.0
2017-Jun-05 10:00N 32°11' W 119°54'1 2.0
2017-Jun-05 09:31N 32°12' W 119°55'1 1.9
2017-Jun-05 09:00N 32°12' W 119°56'1 2.0
2017-Jun-05 08:31N 32°13' W 119°57'1 1.9
2017-Jun-05 08:01N 32°13' W 119°58'1 1.9
2017-Jun-05 07:30N 32°14' W 119°59'1 1.7
2017-Jun-05 07:00N 32°14' W 119°59'1 1.6
2017-Jun-05 06:30N 32°15' W 120°00'0 0.9
2017-Jun-05 06:00N 32°15' W 120°01'4 7.4
2017-Jun-05 05:30N 32°14' W 119°57'5 9.6
2017-Jun-05 05:00N 32°12' W 119°51'5 9.6
2017-Jun-05 04:30N 32°11' W 119°46'5 9.7
2017-Jun-05 04:01N 32°09' W 119°41'6 9.6
2017-Jun-05 03:25N 32°06' W 119°35'6 9.9
2017-Jun-05 02:48N 32°03' W 119°29'410.0
2017-Jun-05 02:24N 32°00' W 119°25'5 9.7
2017-Jun-05 01:51N 31°57' W 119°20'5 9.7
2017-Jun-05 01:23N 31°55' W 119°15'4 9.8
2017-Jun-05 01:00N 31°53' W 119°12'5 9.7
2017-Jun-05 00:30N 31°50' W 119°07'5 9.8
2017-Jun-05 00:00N 31°47' W 119°02'510.0
2017-Jun-04 23:31N 31°44' W 118°57'5 9.9
2017-Jun-04 23:00N 31°42' W 118°53'510.0
2017-Jun-04 22:28N 31°39' W 118°47'510.2
2017-Jun-04 22:00N 31°36' W 118°43'510.3
2017-Jun-04 21:30N 31°33' W 118°38'510.4
2017-Jun-04 21:00N 31°30' W 118°33'510.6
2017-Jun-04 20:30N 31°27' W 118°28'510.7
2017-Jun-04 20:00N 31°24' W 118°22'510.9
2017-Jun-04 19:30N 31°21' W 118°17'510.9
2017-Jun-04 19:00N 31°18' W 118°12'610.8
2017-Jun-04 18:30N 31°15' W 118°07'510.8
2017-Jun-04 18:00N 31°12' W 118°02'1010.8
2017-Jun-04 17:07N 31°06' W 117°52'210.9
2017-Jun-04 16:57N 31°05' W 117°51'1110.8
2017-Jun-04 15:57N 30°59' W 117°40'1 1.4
2017-Jun-04 15:13N 30°58' W 117°40'1 0.9
2017-Jun-04 14:29N 30°58' W 117°41'1 0.9
2017-Jun-04 13:13N 30°58' W 117°42'0 1.0
2017-Jun-04 13:00N 30°58' W 117°42'1 1.0
2017-Jun-04 12:26N 30°59' W 117°43'0 1.0
2017-Jun-04 12:00N 30°59' W 117°43'1 1.1
2017-Jun-04 11:30N 30°59' W 117°44'1 1.1
2017-Jun-04 10:58N 30°59' W 117°45'0 1.0
2017-Jun-04 10:30N 30°59' W 117°45'1 1.1
2017-Jun-04 09:58N 30°59' W 117°46'1 1.1
2017-Jun-04 09:30N 30°59' W 117°47'1 1.0
2017-Jun-04 08:54N 30°59' W 117°47'0 0.9
2017-Jun-04 08:30N 30°59' W 117°48'0 1.0
2017-Jun-04 08:00N 30°59' W 117°48'0 1.0
2017-Jun-04 07:30N 30°59' W 117°49'0 1.0
2017-Jun-04 07:00N 30°59' W 117°49'0 1.0
2017-Jun-04 06:30N 30°60' W 117°50'1 1.0
2017-Jun-04 05:12N 31°00' W 117°51'0 1.0
2017-Jun-04 05:00N 31°00' W 117°51'1 1.1
2017-Jun-04 04:31N 31°00' W 117°52'1 1.1
2017-Jun-04 03:55N 31°00' W 117°53'1 1.2
2017-Jun-04 03:03N 31°01' W 117°54'0 1.0
2017-Jun-04 02:53N 31°01' W 117°54'1 1.2
2017-Jun-04 02:21N 31°01' W 117°55'0 1.1
2017-Jun-04 02:00N 31°01' W 117°55'1 1.1
2017-Jun-04 01:21N 31°01' W 117°56'0 1.1
2017-Jun-04 00:58N 31°01' W 117°57'1 1.2
2017-Jun-04 00:29N 31°02' W 117°57'1 1.2
2017-Jun-03 23:59N 31°02' W 117°58'1 1.3
2017-Jun-03 23:09N 31°02' W 117°59'1 1.3
2017-Jun-03 22:17N 31°02' W 118°00'1 1.2
2017-Jun-03 21:51N 31°02' W 118°01'0 1.4
2017-Jun-03 21:30N 31°02' W 118°02'1 1.2
2017-Jun-03 20:58N 31°02' W 118°02'1 1.3
2017-Jun-03 20:29N 31°02' W 118°03'1 1.2
2017-Jun-03 20:00N 31°02' W 118°04'1 1.2
2017-Jun-03 19:30N 31°02' W 118°04'1 1.1
2017-Jun-03 19:00N 31°02' W 118°05'1 1.1
2017-Jun-03 18:30N 31°02' W 118°06'1 1.1
2017-Jun-03 18:00N 31°02' W 118°06'1 1.1
2017-Jun-03 17:28N 31°02' W 118°07'1 1.2
2017-Jun-03 17:00N 31°02' W 118°08'1 1.1
2017-Jun-03 16:30N 31°02' W 118°08'1 1.1
2017-Jun-03 15:59N 31°02' W 118°09'1 1.0
2017-Jun-03 15:21N 31°02' W 118°10'0 0.8
2017-Jun-03 14:55N 31°02' W 118°10'1 0.8
2017-Jun-03 13:58N 31°02' W 118°11'0 0.9
2017-Jun-03 13:29N 31°03' W 118°12'0 1.0
2017-Jun-03 13:00N 31°03' W 118°12'0 0.9
2017-Jun-03 12:30N 31°03' W 118°13'0 1.0
2017-Jun-03 12:00N 31°03' W 118°13'0 1.0
2017-Jun-03 11:30N 31°03' W 118°14'1 1.1
2017-Jun-03 10:57N 31°03' W 118°14'1 1.2
2017-Jun-03 10:30N 31°04' W 118°15'1 1.1
2017-Jun-03 10:00N 31°04' W 118°16'1 1.2
2017-Jun-03 09:30N 31°04' W 118°16'1 1.3
2017-Jun-03 09:00N 31°04' W 118°17'1 1.2
2017-Jun-03 08:26N 31°04' W 118°18'1 1.3
2017-Jun-03 08:00N 31°05' W 118°18'1 1.3
2017-Jun-03 07:30N 31°05' W 118°19'1 1.3
2017-Jun-03 06:57N 31°05' W 118°20'1 1.3
2017-Jun-03 06:24N 31°05' W 118°21'1 1.3
2017-Jun-03 06:00N 31°05' W 118°21'1 1.3
2017-Jun-03 05:30N 31°05' W 118°22'1 1.1
2017-Jun-03 04:58N 31°05' W 118°23'1 1.2
2017-Jun-03 04:30N 31°05' W 118°24'1 1.2
2017-Jun-03 04:01N 31°05' W 118°24'1 1.1
2017-Jun-03 03:30N 31°05' W 118°25'1 1.2
2017-Jun-03 03:00N 31°05' W 118°26'1 1.1
2017-Jun-03 02:30N 31°05' W 118°26'1 1.2
2017-Jun-03 02:00N 31°05' W 118°27'1 1.2
2017-Jun-03 01:30N 31°05' W 118°28'1 1.1
2017-Jun-03 01:00N 31°05' W 118°28'1 1.3
2017-Jun-03 00:31N 31°05' W 118°29'1 1.2
2017-Jun-03 00:00N 31°05' W 118°30'1 1.2
2017-Jun-02 23:30N 31°05' W 118°30'1 1.3
2017-Jun-02 23:00N 31°05' W 118°31'1 1.1
2017-Jun-02 22:30N 31°04' W 118°32'1 1.1
2017-Jun-02 22:00N 31°04' W 118°32'1 1.0
2017-Jun-02 21:29N 31°04' W 118°33'0 1.0
2017-Jun-02 21:00N 31°04' W 118°34'0 0.9
2017-Jun-02 20:30N 31°04' W 118°34'1 1.2
2017-Jun-02 20:00N 31°04' W 118°35'1 1.6
2017-Jun-02 19:30N 31°04' W 118°35'4 8.5
2017-Jun-02 19:00N 31°01' W 118°32'510.1
2017-Jun-02 18:30N 30°57' W 118°29'13 9.6
2017-Jun-02 17:12N 30°46' W 118°22'1 5.8
2017-Jun-02 17:00N 30°45' W 118°21'20 1.1
2017-Jun-01 22:17N 31°05' W 118°23'2 1.1
2017-Jun-01 20:11N 31°07' W 118°25'15 7.8
2017-Jun-01 18:17N 31°22' W 118°23'4 9.5
2017-Jun-01 17:50N 31°23' W 118°28'3 7.8
2017-Jun-01 17:30N 31°22' W 118°26'2 3.1
2017-Jun-01 16:58N 31°20' W 118°24'1 1.4
2017-Jun-01 16:30N 31°20' W 118°25'1 1.5
2017-Jun-01 16:00N 31°20' W 118°26'1 1.5
2017-Jun-01 15:30N 31°21' W 118°27'1 1.4
2017-Jun-01 14:58N 31°21' W 118°28'1 1.6
2017-Jun-01 14:08N 31°21' W 118°29'1 1.6
2017-Jun-01 13:25N 31°22' W 118°30'1 1.6
2017-Jun-01 12:59N 31°22' W 118°31'1 1.7
2017-Jun-01 12:28N 31°22' W 118°32'1 1.7
2017-Jun-01 12:00N 31°22' W 118°33'1 1.9
2017-Jun-01 11:26N 31°23' W 118°34'1 1.7
2017-Jun-01 10:33N 31°23' W 118°36'0 2.1
2017-Jun-01 10:30N 31°23' W 118°36'1 1.7
2017-Jun-01 10:00N 31°23' W 118°37'1 2.8
2017-Jun-01 09:28N 31°23' W 118°39'1 3.0
2017-Jun-01 09:00N 31°23' W 118°40'3 3.0
2017-Jun-01 07:59N 31°24' W 118°44'1 3.0
2017-Jun-01 07:30N 31°24' W 118°46'3 2.8
2017-Jun-01 06:34N 31°26' W 118°48'0 3.2
2017-Jun-01 06:30N 31°26' W 118°48'2 2.8
2017-Jun-01 05:47N 31°27' W 118°50'5 2.5
2017-Jun-01 03:44N 31°30' W 118°55'3 2.7
2017-Jun-01 02:32N 31°32' W 118°57'1 2.6
2017-Jun-01 02:12N 31°33' W 118°58'1 2.6
2017-Jun-01 02:00N 31°33' W 118°59'1 2.7
2017-Jun-01 01:27N 31°34' W 118°60'2 2.9
2017-Jun-01 00:53N 31°35' W 119°01'1 3.1
2017-Jun-01 00:27N 31°36' W 119°02'2 2.9
2017-May-31 23:56N 31°37' W 119°04'1 2.9
2017-May-31 23:30N 31°38' W 119°05'1 2.8
2017-May-31 23:00N 31°39' W 119°06'2 2.8
2017-May-31 22:27N 31°40' W 119°08'1 2.8
2017-May-31 22:00N 31°41' W 119°09'1 2.6
2017-May-31 21:29N 31°42' W 119°10'1 2.6
2017-May-31 21:00N 31°42' W 119°11'1 2.6
2017-May-31 20:30N 31°43' W 119°12'1 2.5
2017-May-31 19:56N 31°44' W 119°14'1 2.6
2017-May-31 19:26N 31°45' W 119°15'1 2.9
2017-May-31 19:00N 31°45' W 119°16'2 3.1
2017-May-31 18:30N 31°46' W 119°18'2 3.3
2017-May-31 17:59N 31°47' W 119°20'2 3.2
2017-May-31 17:23N 31°48' W 119°21'1 3.2
2017-May-31 16:56N 31°49' W 119°23'2 3.0
2017-May-31 16:23N 31°50' W 119°24'2 3.0
2017-May-31 15:43N 31°51' W 119°26'1 2.9
2017-May-31 15:30N 31°51' W 119°27'1 2.9
2017-May-31 15:00N 31°52' W 119°28'5 4.7
2017-May-31 13:59N 31°55' W 119°33'3 6.5
2017-May-31 13:30N 31°57' W 119°35'1 2.1
2017-May-31 12:59N 31°58' W 119°37'1 2.9
2017-May-31 12:30N 31°58' W 119°38'2 2.0
2017-May-31 11:44N 31°58' W 119°40'2 4.5
2017-May-31 11:17N 31°57' W 119°39'0 1.1
2017-May-31 11:00N 31°57' W 119°39'1 1.3
2017-May-31 10:30N 31°57' W 119°40'1 1.3
2017-May-31 09:50N 31°58' W 119°40'0 1.4
2017-May-31 09:30N 31°58' W 119°40'1 1.2
2017-May-31 09:00N 31°59' W 119°41'1 1.3
2017-May-31 08:30N 31°59' W 119°41'1 1.6
2017-May-31 07:52N 32°00' W 119°42'1 1.8
2017-May-31 07:28N 32°01' W 119°42'1 1.8
2017-May-31 06:55N 32°02' W 119°42'1 1.8
2017-May-31 06:23N 32°03' W 119°43'1 2.0
2017-May-31 06:00N 32°03' W 119°43'1 2.0
2017-May-31 05:30N 32°04' W 119°43'1 2.2
2017-May-31 05:00N 32°05' W 119°44'1 2.3
2017-May-31 04:28N 32°07' W 119°44'1 2.2
2017-May-31 03:59N 32°08' W 119°44'1 2.0
2017-May-31 03:30N 32°08' W 119°45'1 2.0
2017-May-31 03:00N 32°09' W 119°45'  

Dump ship's entire track history